Peotone Weather
Station Historical Data
Daily Summary for March 21, 2017 Units:  English    Metric   Both
« Previous Day
Next Day »
Daily Weekly Monthly Yearly Custom
  High: Low: Average:
Temperature: 56.5 °F 33.0 °F 40.9 °F
Dew Point: 39.3 °F 26.7 °F 33 °F
Humidity: 94% 38% 76%
Wind Speed: 19.5mph 0.0mph 5.1mph
Wind Gust: 26.4mph - -
Wind- - South
Pressure: 30.41 in 30.10 in -
Precipitation: 0.00 in    
Historical Graphs
 
 
Tabular Data for March 21, 2017
Time Temperature Dew Point Pressure Wind Wind Speed Wind Gust Humidity Rainfall Rate (Hourly) solar Conditions
00:00 37.8 °F 36.0 °F 30.11 in North 2.3 mph 5.8 mph 93% 0.00 in 0.00 W/m2
00:01 37.8 °F 36.0 °F 30.11 in North 3.4 mph 3.4 mph 93% 0.00 in 0.00 W/m2
00:05 37.8 °F 36.0 °F 30.11 in North 2.3 mph 6.9 mph 93% 0.00 in 0.00 W/m2
00:06 37.8 °F 36.0 °F 30.11 in Calm   2.3 mph 93% 0.00 in 0.00 W/m2
00:10 37.9 °F 36.3 °F 30.11 in North 3.5 mph 8.1 mph 94% 0.00 in 0.00 W/m2
00:11 37.8 °F 36.2 °F 30.11 in North 3.4 mph 4.6 mph 94% 0.00 in 0.00 W/m2
00:15 37.9 °F 36.3 °F 30.11 in North 3.5 mph 6.9 mph 94% 0.00 in 0.00 W/m2
00:16 37.9 °F 36.3 °F 30.11 in North 4.6 mph 4.6 mph 94% 0.00 in 0.00 W/m2
00:20 37.9 °F 36.3 °F 30.10 in NNE 2.3 mph 6.9 mph 94% 0.00 in 0.00 W/m2
00:21 37.9 °F 36.3 °F 30.10 in NNE 1.1 mph 2.3 mph 94% 0.00 in 0.00 W/m2
00:25 37.8 °F 36.0 °F 30.10 in Calm   4.6 mph 93% 0.00 in 0.00 W/m2
00:26 37.8 °F 36.0 °F 30.10 in NNE 2.3 mph 3.4 mph 93% 0.00 in 0.00 W/m2
00:30 37.7 °F 35.9 °F 30.10 in North 1.1 mph 6.9 mph 93% 0.00 in 0.00 W/m2
00:31 37.8 °F 36.0 °F 30.10 in North 2.3 mph 4.6 mph 93% 0.00 in 0.00 W/m2
00:35 37.8 °F 36.0 °F 30.10 in North 4.6 mph 9.2 mph 93% 0.00 in 0.00 W/m2
00:37 37.8 °F 36.0 °F 30.10 in North 4.6 mph 4.6 mph 93% 0.00 in 0.00 W/m2
00:40 37.9 °F 36.1 °F 30.10 in NE 2.3 mph 8.1 mph 93% 0.00 in 0.00 W/m2
00:42 37.9 °F 36.1 °F 30.10 in NE 3.4 mph 3.4 mph 93% 0.00 in 0.00 W/m2
00:45 37.9 °F 36.1 °F 30.10 in NNE 2.3 mph 8.1 mph 93% 0.00 in 0.00 W/m2
00:47 37.9 °F 36.1 °F 30.10 in NNE 1.1 mph 2.3 mph 93% 0.00 in 0.00 W/m2
00:50 37.9 °F 36.1 °F 30.10 in North 1.1 mph 6.9 mph 93% 0.00 in 0.00 W/m2
00:52 37.9 °F 36.1 °F 30.10 in NNE 2.3 mph 5.8 mph 93% 0.00 in 0.00 W/m2
00:55 37.9 °F 36.1 °F 30.10 in North 2.3 mph 5.8 mph 93% 0.00 in 0.00 W/m2
00:57 37.9 °F 36.1 °F 30.10 in North 5.8 mph 5.8 mph 93% 0.00 in 0.00 W/m2
01:00 37.9 °F 35.8 °F 30.11 in North 3.5 mph 5.8 mph 92% 0.00 in 0.00 W/m2
01:02 37.9 °F 36.1 °F 30.11 in Calm   3.4 mph 93% 0.00 in 0.00 W/m2
01:05 38.0 °F 35.9 °F 30.11 in North 5.8 mph 6.9 mph 92% 0.00 in 0.00 W/m2
01:07 37.9 °F 35.8 °F 30.11 in Calm   6.9 mph 92% 0.00 in 0.00 W/m2
01:10 37.9 °F 35.8 °F 30.11 in NNE 3.5 mph 6.9 mph 92% 0.00 in 0.00 W/m2
01:12 37.9 °F 35.8 °F 30.11 in NNE 2.3 mph 4.6 mph 92% 0.00 in 0.00 W/m2
01:15 37.8 °F 35.7 °F 30.11 in NNE 4.6 mph 5.8 mph 92% 0.00 in 0.00 W/m2
01:17 37.8 °F 35.7 °F 30.11 in NNE 2.3 mph 4.6 mph 92% 0.00 in 0.00 W/m2
01:20 37.7 °F 35.6 °F 30.11 in NNE 1.1 mph 4.6 mph 92% 0.00 in 0.00 W/m2
01:22 37.7 °F 35.6 °F 30.11 in Calm   2.3 mph 92% 0.00 in 0.00 W/m2
01:25 37.4 °F 35.3 °F 30.11 in NNE 2.3 mph 2.3 mph 92% 0.00 in 0.00 W/m2
01:27 37.3 °F 35.2 °F 30.11 in NNE 1.1 mph 3.4 mph 92% 0.00 in 0.00 W/m2
01:30 37.0 °F 34.9 °F 30.11 in NNE 3.5 mph 3.5 mph 92% 0.00 in 0.00 W/m2
01:32 37.0 °F 34.9 °F 30.11 in Calm   3.4 mph 92% 0.00 in 0.00 W/m2
01:35 36.8 °F 34.7 °F 30.12 in NNE 2.3 mph 3.5 mph 92% 0.00 in 0.00 W/m2
01:37 36.8 °F 34.7 °F 30.12 in NNE 2.3 mph 3.4 mph 92% 0.00 in 0.00 W/m2
01:40 36.7 °F 34.9 °F 30.12 in Calm   6.9 mph 93% 0.00 in 0.00 W/m2
01:42 36.7 °F 34.6 °F 30.12 in NNW 2.3 mph 4.6 mph 92% 0.00 in 0.00 W/m2
01:45 36.7 °F 34.9 °F 30.12 in NNW 1.1 mph 4.6 mph 93% 0.00 in 0.00 W/m2
01:47 36.8 °F 35.0 °F 30.12 in Calm   3.4 mph 93% 0.00 in 0.00 W/m2
01:50 36.7 °F 34.6 °F 30.12 in Calm   4.6 mph 92% 0.00 in 0.00 W/m2
01:52 36.6 °F 34.5 °F 30.12 in NNW 2.3 mph 2.3 mph 92% 0.00 in 0.00 W/m2
01:55 36.6 °F 34.8 °F 30.12 in Calm   4.6 mph 93% 0.00 in 0.00 W/m2
01:57 36.6 °F 34.8 °F 30.12 in Calm   3.4 mph 93% 0.00 in 0.00 W/m2
02:00 36.6 °F 34.8 °F 30.12 in NNW 4.6 mph 4.6 mph 93% 0.00 in 0.00 W/m2
02:02 36.6 °F 34.8 °F 30.12 in Calm   4.6 mph 93% 0.00 in 0.00 W/m2
02:05 36.6 °F 34.8 °F 30.12 in NNW 2.3 mph 4.6 mph 93% 0.00 in 0.00 W/m2
02:07 36.6 °F 34.8 °F 30.12 in NNW 1.1 mph 3.4 mph 93% 0.00 in 0.00 W/m2
02:10 36.5 °F 34.7 °F 30.12 in North 1.1 mph 3.5 mph 93% 0.00 in 0.00 W/m2
02:12 36.5 °F 34.7 °F 30.12 in North 3.4 mph 3.4 mph 93% 0.00 in 0.00 W/m2
02:15 36.5 °F 34.7 °F 30.12 in North 2.3 mph 4.6 mph 93% 0.00 in 0.00 W/m2
02:20 36.5 °F 34.7 °F 30.12 in NNW 4.6 mph 4.6 mph 93% 0.00 in 0.00 W/m2
02:22 36.5 °F 34.7 °F 30.12 in NNW 2.3 mph 4.6 mph 93% 0.00 in 0.00 W/m2
02:25 36.4 °F 34.6 °F 30.12 in NNW 4.6 mph 4.6 mph 93% 0.00 in 0.00 W/m2
02:27 36.4 °F 34.6 °F 30.13 in NNW 1.1 mph 4.6 mph 93% 0.00 in 0.00 W/m2
02:30 36.3 °F 34.5 °F 30.12 in NNW 3.5 mph 4.6 mph 93% 0.00 in 0.00 W/m2
02:32 36.3 °F 34.5 °F 30.13 in NNW 2.3 mph 3.4 mph 93% 0.00 in 0.00 W/m2
02:35 36.2 °F 34.4 °F 30.13 in NNW 1.1 mph 3.5 mph 93% 0.00 in 0.00 W/m2
02:37 36.2 °F 34.4 °F 30.13 in NNW 2.3 mph 2.3 mph 93% 0.00 in 0.00 W/m2
02:40 36.2 °F 34.4 °F 30.13 in NNW 1.1 mph 3.5 mph 93% 0.00 in 0.00 W/m2
02:42 36.2 °F 34.4 °F 30.13 in NNW 1.1 mph 2.3 mph 93% 0.00 in 0.00 W/m2
02:45 36.1 °F 34.3 °F 30.13 in NNW 1.1 mph 4.6 mph 93% 0.00 in 0.00 W/m2
02:47 36.0 °F 33.9 °F 30.13 in NNW 1.1 mph 4.6 mph 92% 0.00 in 0.00 W/m2
02:50 35.9 °F 34.1 °F 30.13 in NNW 3.5 mph 4.6 mph 93% 0.00 in 0.00 W/m2
02:52 36.0 °F 34.2 °F 30.13 in NNW 3.4 mph 4.6 mph 93% 0.00 in 0.00 W/m2
02:55 36.0 °F 34.2 °F 30.13 in NNW 1.1 mph 4.6 mph 93% 0.00 in 0.00 W/m2
02:57 36.0 °F 34.2 °F 30.13 in Calm   3.4 mph 93% 0.00 in 0.00 W/m2
03:06 36.5 °F 34.4 °F 30.12 in NNW 2.3 mph 3.4 mph 92% 0.00 in 0.00 W/m2
03:09 36.4 °F 34.3 °F 30.12 in Calm   3.4 mph 92% 0.00 in 0.00 W/m2
03:14 36.2 °F 34.1 °F 30.12 in NNW 2.3 mph 2.3 mph 92% 0.00 in 0.00 W/m2
03:19 35.9 °F 33.8 °F 30.12 in NNW 2.3 mph 3.4 mph 92% 0.00 in 0.00 W/m2
03:25 35.7 °F 33.6 °F 30.12 in NNW 1.1 mph 4.6 mph 92% 0.00 in 0.00 W/m2
03:30 36.1 °F 34.3 °F 30.12 in NW 2.3 mph 3.4 mph 93% 0.00 in 0.00 W/m2
03:35 35.9 °F 33.8 °F 30.12 in NW 1.1 mph 4.6 mph 92% 0.00 in 0.00 W/m2
03:40 35.7 °F 33.6 °F 30.12 in NW 2.3 mph 5.8 mph 92% 0.00 in 0.00 W/m2
03:45 35.6 °F 33.8 °F 30.12 in NW 2.3 mph 5.8 mph 93% 0.00 in 0.00 W/m2
03:50 35.7 °F 33.9 °F 30.12 in NNW 3.4 mph 5.8 mph 93% 0.00 in 0.00 W/m2
03:55 35.9 °F 34.1 °F 30.13 in NNW 4.6 mph 6.9 mph 93% 0.00 in 0.00 W/m2
04:01 35.9 °F 33.8 °F 30.12 in NNW 3.4 mph 5.8 mph 92% 0.00 in 0.00 W/m2
04:06 35.9 °F 33.8 °F 30.12 in NNW 2.3 mph 4.6 mph 92% 0.00 in 0.00 W/m2
04:11 36.0 °F 33.9 °F 30.12 in NNW 1.1 mph 5.8 mph 92% 0.00 in 0.00 W/m2
04:16 36.1 °F 34.0 °F 30.12 in NNW 1.1 mph 5.8 mph 92% 0.00 in 0.00 W/m2
04:21 36.2 °F 34.1 °F 30.12 in NNW 1.1 mph 4.6 mph 92% 0.00 in 0.00 W/m2
04:26 36.3 °F 33.9 °F 30.12 in North 1.1 mph 5.8 mph 91% 0.00 in 0.00 W/m2
04:31 36.4 °F 34.0 °F 30.12 in NNW 2.3 mph 5.8 mph 91% 0.00 in 0.00 W/m2
04:36 36.6 °F 34.2 °F 30.12 in North 2.3 mph 5.8 mph 91% 0.00 in 0.00 W/m2
04:41 36.6 °F 34.0 °F 30.12 in Calm   5.8 mph 90% 0.00 in 0.00 W/m2
04:46 36.6 °F 34.0 °F 30.12 in North 1.1 mph 4.6 mph 90% 0.00 in 0.00 W/m2
04:51 36.7 °F 34.0 °F 30.12 in Calm   5.8 mph 90% 0.00 in 0.00 W/m2
04:56 36.7 °F 34.0 °F 30.13 in North 3.4 mph 4.6 mph 90% 0.00 in 0.00 W/m2
05:01 36.7 °F 34.0 °F 30.13 in North 4.6 mph 4.6 mph 90% 0.00 in 0.00 W/m2
05:11 36.3 °F 33.7 °F 30.13 in NNW 1.1 mph 4.6 mph 90% 0.00 in 0.00 W/m2
05:16 36.1 °F 33.5 °F 30.13 in NNW 2.3 mph 2.3 mph 90% 0.00 in 0.00 W/m2
05:21 36.1 °F 33.5 °F 30.14 in NNW 1.1 mph 3.4 mph 90% 0.00 in 0.00 W/m2
05:26 35.9 °F 33.3 °F 30.14 in NNW 1.1 mph 3.4 mph 90% 0.00 in 0.00 W/m2
05:31 35.8 °F 33.4 °F 30.15 in NNW 2.3 mph 2.3 mph 91% 0.00 in 0.00 W/m2
05:36 35.6 °F 33.2 °F 30.14 in NNW 4.6 mph 4.6 mph 91% 0.00 in 0.00 W/m2
05:41 35.6 °F 33.2 °F 30.15 in NNW 3.4 mph 4.6 mph 91% 0.00 in 0.00 W/m2
05:46 35.6 °F 33.2 °F 30.15 in NNW 3.4 mph 5.8 mph 91% 0.00 in 0.00 W/m2
05:51 35.5 °F 32.9 °F 30.15 in NNW 3.4 mph 4.6 mph 90% 0.00 in 0.00 W/m2
05:56 35.3 °F 32.9 °F 30.15 in NNW 5.8 mph 5.8 mph 91% 0.00 in 0.00 W/m2
06:01 35.3 °F 32.9 °F 30.15 in NNW 4.6 mph 4.6 mph 91% 0.00 in 0.00 W/m2
06:06 35.3 °F 32.9 °F 30.15 in NNW 4.6 mph 4.6 mph 91% 0.00 in 0.00 W/m2
06:11 35.3 °F 32.9 °F 30.16 in NNW 3.4 mph 5.8 mph 91% 0.00 in 0.00 W/m2
06:16 35.4 °F 32.8 °F 30.16 in NNW 5.8 mph 5.8 mph 90% 0.00 in 0.00 W/m2
06:21 35.4 °F 32.8 °F 30.16 in NNW 6.9 mph 8.1 mph 90% 0.00 in 0.00 W/m2
06:26 35.5 °F 32.9 °F 30.16 in NNW 3.4 mph 4.6 mph 90% 0.00 in 0.00 W/m2
06:31 35.6 °F 33.0 °F 30.16 in NNW 5.8 mph 5.8 mph 90% 0.00 in 0.00 W/m2
06:37 35.6 °F 32.7 °F 30.16 in NNW 5.8 mph 5.8 mph 89% 0.00 in 0.00 W/m2
06:42 35.6 °F 32.7 °F 30.16 in NNW 4.6 mph 5.8 mph 89% 0.00 in 0.00 W/m2
06:47 35.6 °F 32.7 °F 30.16 in NNW 2.3 mph 4.6 mph 89% 0.00 in 0.00 W/m2
06:52 36.2 °F 33.0 °F 30.16 in NNW 4.6 mph 5.8 mph 88% 0.00 in 0.00 W/m2
06:57 36.0 °F 32.8 °F 30.16 in North 5.8 mph 5.8 mph 88% 0.00 in 0.00 W/m2
07:02 36.0 °F 32.8 °F 30.16 in North 3.4 mph 6.9 mph 88% 0.00 in 9.00 W/m2
07:07 36.1 °F 32.6 °F 30.16 in North 2.3 mph 4.6 mph 87% 0.00 in 12.00 W/m2
07:12 36.1 °F 32.6 °F 30.16 in NNW 4.6 mph 4.6 mph 87% 0.00 in 14.00 W/m2
07:17 35.9 °F 32.7 °F 30.17 in North 3.4 mph 4.6 mph 88% 0.00 in 19.00 W/m2
07:22 35.9 °F 32.7 °F 30.17 in NNW 4.6 mph 4.6 mph 88% 0.00 in 21.00 W/m2
07:27 36.0 °F 32.8 °F 30.17 in North 3.4 mph 3.4 mph 88% 0.00 in 28.00 W/m2
07:32 36.1 °F 32.9 °F 30.17 in NNW 3.4 mph 4.6 mph 88% 0.00 in 46.00 W/m2
07:37 36.4 °F 32.9 °F 30.17 in North 4.6 mph 4.6 mph 87% 0.00 in 67.00 W/m2
07:42 36.7 °F 33.2 °F 30.17 in North 3.4 mph 4.6 mph 87% 0.00 in 46.00 W/m2
07:47 37.2 °F 33.4 °F 30.18 in NNW 4.6 mph 6.9 mph 86% 0.00 in 70.00 W/m2
07:52 37.7 °F 33.9 °F 30.18 in North 2.3 mph 5.8 mph 86% 0.00 in 65.00 W/m2
07:57 38.0 °F 33.9 °F 30.18 in North 3.4 mph 5.8 mph 85% 0.00 in 86.00 W/m2
08:02 38.4 °F 34.3 °F 30.18 in NNW 3.4 mph 5.8 mph 85% 0.00 in 95.00 W/m2
08:07 39.0 °F 34.9 °F 30.18 in NNW 3.4 mph 5.8 mph 85% 0.00 in 90.00 W/m2
08:12 39.4 °F 35.0 °F 30.18 in NNW 2.3 mph 5.8 mph 84% 0.00 in 91.00 W/m2
08:17 39.6 °F 35.2 °F 30.18 in NNW 5.8 mph 5.8 mph 84% 0.00 in 148.00 W/m2
08:22 40.1 °F 35.7 °F 30.18 in NNW 2.3 mph 5.8 mph 84% 0.00 in 176.00 W/m2
08:27 40.6 °F 36.2 °F 30.18 in NNW 4.6 mph 6.9 mph 84% 0.00 in 190.00 W/m2
08:32 41.2 °F 36.7 °F 30.18 in North 6.9 mph 6.9 mph 84% 0.00 in 253.00 W/m2
08:35 41.5 °F 37.0 °F 30.19 in NNW 1.1 mph 6.9 mph 84% 0.00 in 265.00 W/m2
08:40 42.2 °F 37.7 °F 30.19 in NNW 3.4 mph 5.8 mph 84% 0.00 in 304.00 W/m2
08:45 43.1 °F 38.6 °F 30.19 in NNW 5.8 mph 6.9 mph 84% 0.00 in 362.00 W/m2
08:50 44.0 °F 39.2 °F 30.19 in NNW 5.8 mph 11.5 mph 83% 0.00 in 359.00 W/m2
08:55 44.6 °F 39.1 °F 30.19 in NW 3.4 mph 10.3 mph 81% 0.00 in 272.00 W/m2
09:00 44.6 °F 38.8 °F 30.19 in North 4.6 mph 9.2 mph 80% 0.00 in 329.00 W/m2
09:05 45.1 °F 39.3 °F 30.19 in NNW 8.1 mph 9.2 mph 80% 0.00 in 199.00 W/m2
09:10 45.6 °F 38.8 °F 30.19 in NNW 4.6 mph 10.3 mph 77% 0.00 in 218.00 W/m2
09:15 46.0 °F 38.2 °F 30.19 in NNW 5.8 mph 12.6 mph 74% 0.00 in 376.00 W/m2
09:20 46.7 °F 38.5 °F 30.19 in North 4.6 mph 11.5 mph 73% 0.00 in 269.00 W/m2
09:25 47.4 °F 38.5 °F 30.19 in NNW 6.9 mph 12.6 mph 71% 0.00 in 452.00 W/m2
09:30 48.6 °F 38.9 °F 30.20 in NE 5.8 mph 12.6 mph 69% 0.00 in 473.00 W/m2
09:41 49.4 °F 38.5 °F 30.20 in North 8.1 mph 12.6 mph 66% 0.00 in 501.00 W/m2
09:46 49.9 °F 39.0 °F 30.20 in North 4.6 mph 13.8 mph 66% 0.00 in 552.00 W/m2
09:51 50.5 °F 38.8 °F 30.20 in North 4.6 mph 14.9 mph 64% 0.00 in 527.00 W/m2
09:56 50.4 °F 36.2 °F 30.20 in NNE 9.2 mph 16.1 mph 58% 0.00 in 457.00 W/m2
10:01 50.1 °F 35.9 °F 30.21 in NNW 10.3 mph 18.4 mph 58% 0.00 in 504.00 W/m2
10:06 50.5 °F 36.3 °F 30.21 in NE 1.1 mph 12.6 mph 58% 0.00 in 563.00 W/m2
10:11 51.0 °F 35.0 °F 30.21 in NNE 4.6 mph 16.1 mph 54% 0.00 in 619.00 W/m2
10:16 50.9 °F 34.9 °F 30.22 in NE 8.1 mph 16.1 mph 54% 0.00 in 434.00 W/m2
10:21 50.8 °F 35.7 °F 30.22 in NNW 3.4 mph 11.5 mph 56% 0.00 in 315.00 W/m2
10:26 50.7 °F 34.7 °F 30.22 in NE 4.6 mph 12.6 mph 54% 0.00 in 373.00 W/m2
10:31 51.1 °F 34.6 °F 30.22 in NNE 9.2 mph 12.6 mph 53% 0.00 in 355.00 W/m2
10:36 52.0 °F 35.9 °F 30.22 in North 6.9 mph 13.8 mph 54% 0.00 in 584.00 W/m2
10:41 52.2 °F 34.6 °F 30.22 in North 3.4 mph 13.8 mph 51% 0.00 in 283.00 W/m2
10:46 51.7 °F 32.7 °F 30.22 in NNE 6.9 mph 14.9 mph 48% 0.00 in 362.00 W/m2
10:51 51.7 °F 33.2 °F 30.22 in North 3.4 mph 4.6 mph 49% 0.00 in 325.00 W/m2
10:56 52.4 °F 33.3 °F 30.22 in NNE 10.3 mph 10.3 mph 48% 0.00 in 541.00 W/m2
11:01 53.2 °F 32.4 °F 30.22 in NNE 9.2 mph 11.5 mph 45% 0.00 in 485.00 W/m2
11:06 53.6 °F 32.8 °F 30.22 in North 9.2 mph 9.2 mph 45% 0.00 in 399.00 W/m2
11:11 53.8 °F 32.4 °F 30.22 in NNW 10.3 mph 10.3 mph 44% 0.00 in 353.00 W/m2
11:16 53.4 °F 32.0 °F 30.21 in NNW 11.5 mph 13.8 mph 44% 0.00 in 309.00 W/m2
11:21 53.3 °F 33.6 °F 30.21 in NNW 6.9 mph 8.1 mph 47% 0.00 in 302.00 W/m2
11:26 53.4 °F 32.6 °F 30.21 in North 3.4 mph 5.8 mph 45% 0.00 in 281.00 W/m2
11:31 53.9 °F 34.2 °F 30.21 in NNE 8.1 mph 9.2 mph 47% 0.00 in 221.00 W/m2
11:36 54.5 °F 33.0 °F 30.21 in North 6.9 mph 8.1 mph 44% 0.00 in 232.00 W/m2
11:41 55.1 °F 33.0 °F 30.21 in North 8.1 mph 9.2 mph 43% 0.00 in 357.00 W/m2
11:46 55.4 °F 30.2 °F 30.21 in NNE 6.9 mph 6.9 mph 38% 0.00 in 527.00 W/m2
11:51 55.2 °F 33.1 °F 30.21 in North 4.6 mph 12.6 mph 43% 0.00 in 555.00 W/m2
11:57 55.4 °F 32.1 °F 30.21 in North 10.3 mph 10.3 mph 41% 0.00 in 461.00 W/m2
12:02 54.9 °F 34.0 °F 30.20 in NNW 9.2 mph 12.6 mph 45% 0.00 in 459.00 W/m2
12:07 55.3 °F 34.9 °F 30.20 in NNW 5.8 mph 8.1 mph 46% 0.00 in 471.00 W/m2
12:12 54.9 °F 32.3 °F 30.20 in Calm   5.8 mph 42% 0.00 in 431.00 W/m2
12:17 54.9 °F 32.8 °F 30.21 in NW 2.3 mph 4.6 mph 43% 0.00 in 485.00 W/m2
12:22 55.6 °F 32.9 °F 30.20 in NNW 5.8 mph 9.2 mph 42% 0.00 in 587.00 W/m2
12:27 56.0 °F 32.7 °F 30.21 in NW 9.2 mph 9.2 mph 41% 0.00 in 652.00 W/m2
12:32 56.5 °F 34.9 °F 30.20 in NNE 4.6 mph 12.6 mph 44% 0.00 in 482.00 W/m2
12:37 55.7 °F 30.5 °F 30.21 in North 6.9 mph 12.6 mph 38% 0.00 in 371.00 W/m2
12:42 55.3 °F 32.6 °F 30.21 in NNW 5.8 mph 8.1 mph 42% 0.00 in 381.00 W/m2
12:47 55.3 °F 32.6 °F 30.21 in NW 4.6 mph 9.2 mph 42% 0.00 in 306.00 W/m2
12:52 54.5 °F 30.7 °F 30.22 in NW 6.9 mph 12.6 mph 40% 0.00 in 313.00 W/m2
12:57 54.5 °F 31.3 °F 30.22 in NNW 10.3 mph 10.3 mph 41% 0.00 in 267.00 W/m2
13:02 54.4 °F 31.8 °F 30.22 in NW 8.1 mph 9.2 mph 42% 0.00 in 243.00 W/m2
13:07 54.1 °F 29.7 °F 30.22 in NW 6.9 mph 11.5 mph 39% 0.00 in 200.00 W/m2
13:12 53.7 °F 28.7 °F 30.22 in NW 5.8 mph 11.5 mph 38% 0.00 in 153.00 W/m2
13:17 53.3 °F 30.8 °F 30.21 in NNW 8.1 mph 14.9 mph 42% 0.00 in 135.00 W/m2
13:22 53.0 °F 30.0 °F 30.21 in NW 6.9 mph 9.2 mph 41% 0.00 in 120.00 W/m2
13:27 52.9 °F 31.6 °F 30.21 in NW 5.8 mph 6.9 mph 44% 0.00 in 111.00 W/m2
13:33 52.8 °F 30.4 °F 30.21 in NNW 6.9 mph 10.3 mph 42% 0.00 in 153.00 W/m2
13:38 52.9 °F 31.0 °F 30.21 in NW 5.8 mph 11.5 mph 43% 0.00 in 197.00 W/m2
13:43 53.0 °F 30.5 °F 30.21 in WNW 6.9 mph 8.1 mph 42% 0.00 in 211.00 W/m2
13:48 53.4 °F 30.9 °F 30.21 in NNW 8.1 mph 10.3 mph 42% 0.00 in 220.00 W/m2
13:53 52.1 °F 31.4 °F 30.22 in NNE 1.1 mph 6.9 mph 45% 0.00 in 237.00 W/m2
13:58 50.6 °F 32.2 °F 30.22 in NNE 6.9 mph 10.3 mph 49% 0.00 in 267.00 W/m2
14:03 50.0 °F 31.6 °F 30.21 in NE 3.4 mph 11.5 mph 49% 0.00 in 278.00 W/m2
14:08 49.5 °F 30.6 °F 30.21 in NE 8.1 mph 11.5 mph 48% 0.00 in 279.00 W/m2
14:13 49.2 °F 31.9 °F 30.22 in NE 10.3 mph 10.3 mph 51% 0.00 in 301.00 W/m2
14:18 49.2 °F 32.3 °F 30.21 in NE 1.1 mph 8.1 mph 52% 0.00 in 316.00 W/m2
14:21 49.5 °F 33.1 °F 30.21 in East 5.8 mph 6.9 mph 53% 0.00 in 325.00 W/m2
14:26 49.5 °F 32.6 °F 30.21 in ENE 2.3 mph 4.6 mph 52% 0.00 in 299.00 W/m2
14:31 49.2 °F 32.8 °F 30.21 in NNE 8.1 mph 8.1 mph 53% 0.00 in 285.00 W/m2
14:36 49.0 °F 31.7 °F 30.22 in NE 5.8 mph 9.2 mph 51% 0.00 in 274.00 W/m2
14:41 48.8 °F 32.9 °F 30.22 in NE 5.8 mph 8.1 mph 54% 0.00 in 325.00 W/m2
14:46 49.1 °F 32.7 °F 30.22 in ENE 11.5 mph 11.5 mph 53% 0.00 in 327.00 W/m2
14:51 49.2 °F 32.8 °F 30.22 in NNE 4.6 mph 8.1 mph 53% 0.00 in 313.00 W/m2
14:57 48.8 °F 33.4 °F 30.22 in NE 8.1 mph 10.3 mph 55% 0.00 in 262.00 W/m2
15:02 48.2 °F 32.3 °F 30.22 in NE 3.4 mph 8.1 mph 54% 0.00 in 315.00 W/m2
15:07 48.3 °F 32.0 °F 30.22 in NE 5.8 mph 11.5 mph 53% 0.00 in 320.00 W/m2
15:12 47.6 °F 31.8 °F 30.23 in ENE 3.4 mph 4.6 mph 54% 0.00 in 255.00 W/m2
15:17 47.1 °F 31.8 °F 30.23 in ENE 8.1 mph 11.5 mph 55% 0.00 in 258.00 W/m2
15:22 47.0 °F 32.6 °F 30.23 in NE 3.4 mph 3.4 mph 57% 0.00 in 287.00 W/m2
15:27 47.1 °F 32.2 °F 30.22 in NE 6.9 mph 8.1 mph 56% 0.00 in 311.00 W/m2
15:32 47.2 °F 32.3 °F 30.23 in NE 4.6 mph 8.1 mph 56% 0.00 in 332.00 W/m2
15:37 47.3 °F 32.4 °F 30.22 in NNE 12.6 mph 12.6 mph 56% 0.00 in 327.00 W/m2
15:42 47.1 °F 32.2 °F 30.23 in NE 6.9 mph 6.9 mph 56% 0.00 in 424.00 W/m2
15:47 46.6 °F 32.2 °F 30.23 in ENE 5.8 mph 12.6 mph 57% 0.00 in 367.00 W/m2
15:52 47.1 °F 31.8 °F 30.23 in ESE 4.6 mph 11.5 mph 55% 0.00 in 357.00 W/m2
15:57 47.0 °F 32.1 °F 30.23 in East 5.8 mph 12.6 mph 56% 0.00 in 330.00 W/m2
16:02 46.4 °F 32.0 °F 30.23 in NE 3.4 mph 9.2 mph 57% 0.00 in 241.00 W/m2
16:07 46.1 °F 31.7 °F 30.23 in ENE 10.3 mph 12.6 mph 57% 0.00 in 220.00 W/m2
16:12 46.1 °F 32.2 °F 30.23 in NE 4.6 mph 10.3 mph 58% 0.00 in 269.00 W/m2
16:18 46.5 °F 32.5 °F 30.23 in ENE 9.2 mph 12.6 mph 58% 0.00 in 304.00 W/m2
16:23 46.2 °F 32.7 °F 30.22 in ENE 5.8 mph 14.9 mph 59% 0.00 in 79.00 W/m2
16:28 46.1 °F 32.2 °F 30.23 in NNE 10.3 mph 16.1 mph 58% 0.00 in 274.00 W/m2
16:30 45.7 °F 32.2 °F 30.22 in NNE 14.9 mph 16.1 mph 59% 0.00 in 156.00 W/m2
16:35 45.8 °F 32.7 °F 30.22 in NE 5.8 mph 14.9 mph 60% 0.00 in 329.00 W/m2
16:40 45.7 °F 32.6 °F 30.23 in NE 2.3 mph 11.5 mph 60% 0.00 in 251.00 W/m2
16:45 45.8 °F 32.7 °F 30.23 in NE 10.3 mph 17.2 mph 60% 0.00 in 345.00 W/m2
16:50 45.4 °F 32.3 °F 30.23 in NE 6.9 mph 16.1 mph 60% 0.00 in 183.00 W/m2
16:56 45.5 °F 33.2 °F 30.23 in NE 4.6 mph 14.9 mph 62% 0.00 in 139.00 W/m2
17:01 45.6 °F 32.9 °F 30.23 in NE 10.3 mph 12.6 mph 61% 0.00 in 149.00 W/m2
17:06 45.1 °F 32.9 °F 30.23 in NE 9.2 mph 14.9 mph 62% 0.00 in 125.00 W/m2
17:11 45.2 °F 32.6 °F 30.23 in NE 6.9 mph 12.6 mph 61% 0.00 in 90.00 W/m2
17:16 45.2 °F 33.0 °F 30.23 in NE 10.3 mph 13.8 mph 62% 0.00 in 137.00 W/m2
17:21 45.2 °F 33.4 °F 30.24 in NE 14.9 mph 14.9 mph 63% 0.00 in 262.00 W/m2
17:26 44.4 °F 32.6 °F 30.24 in NE 9.2 mph 18.4 mph 63% 0.00 in 192.00 W/m2
17:31 44.2 °F 32.0 °F 30.24 in North 13.8 mph 17.2 mph 62% 0.00 in 232.00 W/m2
17:36 44.0 °F 32.2 °F 30.25 in NE 10.3 mph 14.9 mph 63% 0.00 in 257.00 W/m2
17:41 43.7 °F 32.3 °F 30.24 in NE 6.9 mph 14.9 mph 64% 0.00 in 167.00 W/m2
17:46 44.1 °F 33.1 °F 30.25 in ENE 8.1 mph 10.3 mph 65% 0.00 in 137.00 W/m2
17:51 43.7 °F 32.7 °F 30.25 in NE 6.9 mph 6.9 mph 65% 0.00 in 141.00 W/m2
17:56 43.3 °F 32.7 °F 30.25 in NE 9.2 mph 11.5 mph 66% 0.00 in 165.00 W/m2
18:01 43.0 °F 33.2 °F 30.25 in NNE 6.9 mph 10.3 mph 68% 0.00 in 148.00 W/m2
18:06 42.4 °F 32.6 °F 30.25 in NE 4.6 mph 8.1 mph 68% 0.00 in 128.00 W/m2
18:10 41.6 °F 31.8 °F 30.25 in NE 12.6 mph 17.2 mph 68% 0.00 in 113.00 W/m2
18:15 41.2 °F 31.5 °F 30.25 in ENE 9.2 mph 14.9 mph 68% 0.00 in 62.00 W/m2
18:21 40.7 °F 31.3 °F 30.25 in NNE 10.3 mph 13.8 mph 69% 0.00 in 76.00 W/m2
18:26 40.3 °F 31.3 °F 30.26 in ENE 9.2 mph 11.5 mph 70% 0.00 in 62.00 W/m2
18:31 40.0 °F 31.0 °F 30.26 in Calm   12.6 mph 70% 0.00 in 49.00 W/m2
18:36 39.6 °F 31.3 °F 30.26 in ENE 9.2 mph 10.3 mph 72% 0.00 in 33.00 W/m2
18:41 39.2 °F 31.3 °F 30.26 in ENE 4.6 mph 12.6 mph 73% 0.00 in 26.00 W/m2
18:46 38.9 °F 31.0 °F 30.26 in NNE 3.4 mph 14.9 mph 73% 0.00 in 16.00 W/m2
18:51 38.6 °F 30.4 °F 30.27 in NE 4.6 mph 10.3 mph 72% 0.00 in 12.00 W/m2
18:56 38.2 °F 30.0 °F 30.27 in NE 5.8 mph 11.5 mph 72% 0.00 in 9.00 W/m2
19:01 37.9 °F 30.0 °F 30.27 in NNE 8.1 mph 13.8 mph 73% 0.00 in 7.00 W/m2
19:06 37.6 °F 30.1 °F 30.27 in ENE 3.4 mph 11.5 mph 74% 0.00 in 0.00 W/m2
19:11 37.3 °F 29.8 °F 30.27 in NE 5.8 mph 14.9 mph 74% 0.00 in 0.00 W/m2
19:16 37.0 °F 29.8 °F 30.28 in NE 2.3 mph 10.3 mph 75% 0.00 in 0.00 W/m2
19:21 36.6 °F 29.8 °F 30.28 in NE 5.8 mph 9.2 mph 76% 0.00 in 0.00 W/m2
19:26 36.5 °F 30.0 °F 30.28 in NE 5.8 mph 5.8 mph 77% 0.00 in 0.00 W/m2
19:31 36.4 °F 29.9 °F 30.28 in ENE 8.1 mph 8.1 mph 77% 0.00 in 0.00 W/m2
19:36 36.1 °F 29.6 °F 30.28 in East 3.4 mph 6.9 mph 77% 0.00 in 0.00 W/m2
19:41 36.0 °F 29.5 °F 30.28 in North 5.8 mph 5.8 mph 77% 0.00 in 0.00 W/m2
19:46 35.9 °F 29.7 °F 30.29 in ENE 2.3 mph 3.4 mph 78% 0.00 in 0.00 W/m2
19:51 35.7 °F 29.8 °F 30.29 in Calm   3.4 mph 79% 0.00 in 0.00 W/m2
19:56 35.5 °F 30.0 °F 30.30 in NE 5.8 mph 5.8 mph 80% 0.00 in 0.00 W/m2
20:01 35.4 °F 30.2 °F 30.30 in NE 4.6 mph 8.1 mph 81% 0.00 in 0.00 W/m2
20:07 35.2 °F 30.0 °F 30.30 in NE 8.1 mph 8.1 mph 81% 0.00 in 0.00 W/m2
20:12 35.2 °F 30.3 °F 30.30 in NE 6.9 mph 9.2 mph 82% 0.00 in 0.00 W/m2
20:17 35.1 °F 30.2 °F 30.30 in NE 5.8 mph 5.8 mph 82% 0.00 in 0.00 W/m2
20:22 34.9 °F 30.0 °F 30.30 in NE 3.4 mph 3.4 mph 82% 0.00 in 0.00 W/m2
20:27 34.7 °F 29.8 °F 30.31 in ENE 3.4 mph 5.8 mph 82% 0.00 in 0.00 W/m2
20:32 34.6 °F 30.0 °F 30.31 in NE 6.9 mph 6.9 mph 83% 0.00 in 0.00 W/m2
20:37 34.5 °F 29.9 °F 30.31 in NE 5.8 mph 5.8 mph 83% 0.00 in 0.00 W/m2
20:42 34.3 °F 29.7 °F 30.31 in ENE 8.1 mph 9.2 mph 83% 0.00 in 0.00 W/m2
20:47 34.2 °F 29.6 °F 30.31 in NNE 3.4 mph 5.8 mph 83% 0.00 in 0.00 W/m2
20:52 34.0 °F 29.4 °F 30.31 in NE 5.8 mph 6.9 mph 83% 0.00 in 0.00 W/m2
20:57 34.0 °F 29.4 °F 30.31 in NE 3.4 mph 8.1 mph 83% 0.00 in 0.00 W/m2
21:02 33.8 °F 29.5 °F 30.32 in NE 4.6 mph 8.1 mph 84% 0.00 in 0.00 W/m2
21:07 33.7 °F 29.4 °F 30.32 in NE 3.4 mph 5.8 mph 84% 0.00 in 0.00 W/m2
21:12 33.4 °F 29.1 °F 30.32 in NE 2.3 mph 3.4 mph 84% 0.00 in 0.00 W/m2
21:17 33.1 °F 29.1 °F 30.33 in ENE 3.4 mph 6.9 mph 85% 0.00 in 0.00 W/m2
21:22 33.2 °F 29.2 °F 30.33 in NNE 4.6 mph 8.1 mph 85% 0.00 in 0.00 W/m2
21:27 33.4 °F 29.4 °F 30.33 in North 8.1 mph 8.1 mph 85% 0.00 in 0.00 W/m2
21:32 33.6 °F 29.3 °F 30.33 in NNE 5.8 mph 10.3 mph 84% 0.00 in 0.00 W/m2
21:37 33.7 °F 29.4 °F 30.33 in NE 4.6 mph 6.9 mph 84% 0.00 in 0.00 W/m2
21:42 33.5 °F 29.2 °F 30.33 in NNE 3.4 mph 10.3 mph 84% 0.00 in 0.00 W/m2
21:47 33.6 °F 29.3 °F 30.34 in North 6.9 mph 11.5 mph 84% 0.00 in 0.00 W/m2
21:53 33.8 °F 29.2 °F 30.34 in North 10.3 mph 17.2 mph 83% 0.00 in 0.00 W/m2
21:58 33.8 °F 29.2 °F 30.34 in NNE 10.3 mph 10.3 mph 83% 0.00 in 0.00 W/m2
22:03 33.7 °F 29.1 °F 30.34 in NE 3.4 mph 11.5 mph 83% 0.00 in 0.00 W/m2
22:08 33.5 °F 29.2 °F 30.35 in NE 8.1 mph 11.5 mph 84% 0.00 in 0.00 W/m2
22:13 33.6 °F 29.0 °F 30.35 in NNE 4.6 mph 16.1 mph 83% 0.00 in 0.00 W/m2
22:18 33.8 °F 28.9 °F 30.35 in NE 11.5 mph 20.7 mph 82% 0.00 in 0.00 W/m2
22:23 33.9 °F 29.0 °F 30.36 in NNE 9.2 mph 21.9 mph 82% 0.00 in 0.00 W/m2
22:28 33.9 °F 28.7 °F 30.36 in NE 5.8 mph 16.1 mph 81% 0.00 in 0.00 W/m2
22:33 33.8 °F 28.9 °F 30.37 in NNE 5.8 mph 18.4 mph 82% 0.00 in 0.00 W/m2
22:38 33.9 °F 29.0 °F 30.37 in North 8.1 mph 12.6 mph 82% 0.00 in 0.00 W/m2
22:43 34.1 °F 29.2 °F 30.37 in NE 8.1 mph 20.7 mph 82% 0.00 in 0.00 W/m2
22:48 34.2 °F 29.3 °F 30.37 in NE 16.1 mph 16.1 mph 82% 0.00 in 0.00 W/m2
22:53 34.2 °F 29.0 °F 30.37 in NE 10.3 mph 14.9 mph 81% 0.00 in 0.00 W/m2
22:58 34.0 °F 28.8 °F 30.38 in North 10.3 mph 16.1 mph 81% 0.00 in 0.00 W/m2
23:04 33.7 °F 28.2 °F 30.38 in North 5.8 mph 19.5 mph 80% 0.00 in 0.00 W/m2
23:09 33.5 °F 28.0 °F 30.39 in North 11.5 mph 17.2 mph 80% 0.00 in 0.00 W/m2
23:14 33.4 °F 27.9 °F 30.39 in NE 12.6 mph 26.4 mph 80% 0.00 in 0.00 W/m2
23:19 33.4 °F 27.9 °F 30.40 in NE 19.5 mph 19.5 mph 80% 0.00 in 0.00 W/m2
23:24 33.4 °F 27.9 °F 30.40 in NNW 9.2 mph 21.9 mph 80% 0.00 in 0.00 W/m2
23:29 33.3 °F 27.5 °F 30.40 in NE 5.8 mph 23.0 mph 79% 0.00 in 0.00 W/m2
23:34 33.3 °F 27.8 °F 30.40 in NNE 17.2 mph 23.0 mph 80% 0.00 in 0.00 W/m2
23:39 33.3 °F 27.5 °F 30.40 in NE 8.1 mph 13.8 mph 79% 0.00 in 0.00 W/m2
23:44 33.1 °F 27.0 °F 30.40 in NE 13.8 mph 17.2 mph 78% 0.00 in 0.00 W/m2
23:49 33.0 °F 26.9 °F 30.41 in NE 4.6 mph 20.7 mph 78% 0.00 in 0.00 W/m2
23:54 33.0 °F 26.9 °F 30.41 in NE 16.1 mph 23.0 mph 78% 0.00 in 0.00 W/m2
23:59 33.1 °F 26.7 °F 30.41 in NNE 17.2 mph 24.1 mph 77% 0.00 in 0.00 W/m2
peotoneweather.com
Compliments of Weather Underground - 1.75 mb